sensor_id;sensor_type;location;lat;lon;timestamp;temperature;humidity
4635;DHT22;2330;48.158;11.816;2022-12-19T00:01:32;-6.20;98.50
4635;DHT22;2330;48.158;11.816;2022-12-19T00:04:01;-6.30;98.50
4635;DHT22;2330;48.158;11.816;2022-12-19T00:06:35;-6.20;98.50
4635;DHT22;2330;48.158;11.816;2022-12-19T00:09:03;-6.20;98.50
4635;DHT22;2330;48.158;11.816;2022-12-19T00:11:31;-6.30;98.50
4635;DHT22;2330;48.158;11.816;2022-12-19T00:13:58;-6.30;98.50
4635;DHT22;2330;48.158;11.816;2022-12-19T00:16:27;-6.20;98.50
4635;DHT22;2330;48.158;11.816;2022-12-19T00:18:56;-6.20;98.50
4635;DHT22;2330;48.158;11.816;2022-12-19T00:21:26;-6.10;98.50
4635;DHT22;2330;48.158;11.816;2022-12-19T00:23:53;-6.00;98.50
4635;DHT22;2330;48.158;11.816;2022-12-19T00:28:51;-5.90;98.50
4635;DHT22;2330;48.158;11.816;2022-12-19T00:31:20;-5.80;98.50
4635;DHT22;2330;48.158;11.816;2022-12-19T00:33:48;-5.80;98.50
4635;DHT22;2330;48.158;11.816;2022-12-19T00:36:18;-5.80;98.50
4635;DHT22;2330;48.158;11.816;2022-12-19T00:38:49;-5.90;98.50
4635;DHT22;2330;48.158;11.816;2022-12-19T00:41:20;-5.90;98.50
4635;DHT22;2330;48.158;11.816;2022-12-19T00:43:59;-5.90;98.50
4635;DHT22;2330;48.158;11.816;2022-12-19T00:46:27;-6.00;98.50
4635;DHT22;2330;48.158;11.816;2022-12-19T00:48:54;-6.00;98.50
4635;DHT22;2330;48.158;11.816;2022-12-19T00:51:23;-5.90;98.50
4635;DHT22;2330;48.158;11.816;2022-12-19T00:53:52;-5.90;98.50
4635;DHT22;2330;48.158;11.816;2022-12-19T00:56:25;-5.90;98.50
4635;DHT22;2330;48.158;11.816;2022-12-19T00:58:53;-5.90;98.50
4635;DHT22;2330;48.158;11.816;2022-12-19T01:01:21;-5.90;98.50
4635;DHT22;2330;48.158;11.816;2022-12-19T01:03:49;-5.80;98.50
4635;DHT22;2330;48.158;11.816;2022-12-19T01:06:36;-5.80;98.50
4635;DHT22;2330;48.158;11.816;2022-12-19T01:09:03;-5.80;98.50
4635;DHT22;2330;48.158;11.816;2022-12-19T01:11:30;-5.70;98.50
4635;DHT22;2330;48.158;11.816;2022-12-19T01:14:15;-5.70;98.50
4635;DHT22;2330;48.158;11.816;2022-12-19T01:16:49;-5.60;98.50
4635;DHT22;2330;48.158;11.816;2022-12-19T01:19:16;-5.60;98.50
4635;DHT22;2330;48.158;11.816;2022-12-19T01:21:43;-5.60;98.50
4635;DHT22;2330;48.158;11.816;2022-12-19T01:24:10;-5.50;98.50
4635;DHT22;2330;48.158;11.816;2022-12-19T01:26:37;-5.50;98.50
4635;DHT22;2330;48.158;11.816;2022-12-19T01:29:04;-5.50;98.50
4635;DHT22;2330;48.158;11.816;2022-12-19T01:31:31;-5.50;98.50
4635;DHT22;2330;48.158;11.816;2022-12-19T01:33:59;-5.50;98.50
4635;DHT22;2330;48.158;11.816;2022-12-19T01:36:27;-5.50;98.50
4635;DHT22;2330;48.158;11.816;2022-12-19T01:38:57;-5.50;98.50
4635;DHT22;2330;48.158;11.816;2022-12-19T01:41:24;-5.50;98.50
4635;DHT22;2330;48.158;11.816;2022-12-19T01:44:06;-5.50;98.50
4635;DHT22;2330;48.158;11.816;2022-12-19T01:46:39;-5.50;98.50
4635;DHT22;2330;48.158;11.816;2022-12-19T01:51:46;-5.50;98.50
4635;DHT22;2330;48.158;11.816;2022-12-19T01:54:18;-5.60;98.50
4635;DHT22;2330;48.158;11.816;2022-12-19T01:56:49;-5.60;98.50
4635;DHT22;2330;48.158;11.816;2022-12-19T01:59:23;-5.60;98.50
4635;DHT22;2330;48.158;11.816;2022-12-19T02:01:54;-5.50;98.50
4635;DHT22;2330;48.158;11.816;2022-12-19T02:04:25;-5.50;98.50
4635;DHT22;2330;48.158;11.816;2022-12-19T02:06:58;-5.50;98.50
4635;DHT22;2330;48.158;11.816;2022-12-19T02:09:41;-5.50;98.50
4635;DHT22;2330;48.158;11.816;2022-12-19T02:12:09;-5.40;98.50
4635;DHT22;2330;48.158;11.816;2022-12-19T02:14:35;-5.40;98.50
4635;DHT22;2330;48.158;11.816;2022-12-19T02:17:27;-5.40;98.50
4635;DHT22;2330;48.158;11.816;2022-12-19T02:25:50;-5.20;98.50
4635;DHT22;2330;48.158;11.816;2022-12-19T02:28:34;-5.20;98.50
4635;DHT22;2330;48.158;11.816;2022-12-19T02:31:29;-5.20;98.50
4635;DHT22;2330;48.158;11.816;2022-12-19T02:36:39;-5.30;98.50
4635;DHT22;2330;48.158;11.816;2022-12-19T02:41:57;-5.30;98.50
4635;DHT22;2330;48.158;11.816;2022-12-19T02:44:35;-5.30;98.50
4635;DHT22;2330;48.158;11.816;2022-12-19T02:47:04;-5.30;98.50
4635;DHT22;2330;48.158;11.816;2022-12-19T02:49:34;-5.40;98.50
4635;DHT22;2330;48.158;11.816;2022-12-19T02:52:39;-5.40;98.50
4635;DHT22;2330;48.158;11.816;2022-12-19T02:55:03;-5.50;98.50
4635;DHT22;2330;48.158;11.816;2022-12-19T02:57:37;-5.50;98.50
4635;DHT22;2330;48.158;11.816;2022-12-19T03:00:17;-5.50;98.50
4635;DHT22;2330;48.158;11.816;2022-12-19T03:02:54;-5.60;98.50
4635;DHT22;2330;48.158;11.816;2022-12-19T03:08:26;-5.60;98.50
4635;DHT22;2330;48.158;11.816;2022-12-19T03:11:01;-5.50;98.50
4635;DHT22;2330;48.158;11.816;2022-12-19T03:13:42;-5.50;98.50
4635;DHT22;2330;48.158;11.816;2022-12-19T03:16:11;-5.50;98.50
4635;DHT22;2330;48.158;11.816;2022-12-19T03:18:39;-5.50;98.50
4635;DHT22;2330;48.158;11.816;2022-12-19T03:21:52;-5.50;98.50
4635;DHT22;2330;48.158;11.816;2022-12-19T03:24:12;-5.50;98.50
4635;DHT22;2330;48.158;11.816;2022-12-19T03:26:53;-5.50;98.50
4635;DHT22;2330;48.158;11.816;2022-12-19T03:29:45;-5.50;98.50
4635;DHT22;2330;48.158;11.816;2022-12-19T03:32:14;-5.40;98.50
4635;DHT22;2330;48.158;11.816;2022-12-19T03:34:49;-5.40;98.50
4635;DHT22;2330;48.158;11.816;2022-12-19T03:37:20;-5.40;98.50
4635;DHT22;2330;48.158;11.816;2022-12-19T03:39:54;-5.40;98.50
4635;DHT22;2330;48.158;11.816;2022-12-19T03:42:25;-5.30;98.50
4635;DHT22;2330;48.158;11.816;2022-12-19T03:45:17;-5.30;98.50
4635;DHT22;2330;48.158;11.816;2022-12-19T03:47:54;-5.30;98.50
4635;DHT22;2330;48.158;11.816;2022-12-19T03:50:24;-5.30;98.50
4635;DHT22;2330;48.158;11.816;2022-12-19T03:53:06;-5.30;98.50
4635;DHT22;2330;48.158;11.816;2022-12-19T03:55:48;-5.20;98.50
4635;DHT22;2330;48.158;11.816;2022-12-19T03:58:26;-5.20;98.50
4635;DHT22;2330;48.158;11.816;2022-12-19T04:00:56;-5.20;98.50
4635;DHT22;2330;48.158;11.816;2022-12-19T04:03:28;-5.20;98.50
4635;DHT22;2330;48.158;11.816;2022-12-19T04:05:56;-5.20;98.50
4635;DHT22;2330;48.158;11.816;2022-12-19T04:08:25;-5.10;98.50
4635;DHT22;2330;48.158;11.816;2022-12-19T04:10:58;-5.20;98.50
4635;DHT22;2330;48.158;11.816;2022-12-19T04:13:39;-5.10;98.50
4635;DHT22;2330;48.158;11.816;2022-12-19T04:18:44;-5.30;98.50
4635;DHT22;2330;48.158;11.816;2022-12-19T04:21:18;-5.20;98.50
4635;DHT22;2330;48.158;11.816;2022-12-19T04:23:52;-5.20;98.50
4635;DHT22;2330;48.158;11.816;2022-12-19T04:26:21;-5.20;98.50
4635;DHT22;2330;48.158;11.816;2022-12-19T04:28:51;-5.20;98.50
4635;DHT22;2330;48.158;11.816;2022-12-19T04:31:20;-5.30;98.50
4635;DHT22;2330;48.158;11.816;2022-12-19T04:33:48;-5.30;98.50
4635;DHT22;2330;48.158;11.816;2022-12-19T04:36:15;-5.30;98.50
4635;DHT22;2330;48.158;11.816;2022-12-19T04:38:41;-5.20;98.50
4635;DHT22;2330;48.158;11.816;2022-12-19T04:41:08;-5.20;98.50
4635;DHT22;2330;48.158;11.816;2022-12-19T04:43:35;-5.20;98.50
4635;DHT22;2330;48.158;11.816;2022-12-19T04:46:02;-5.20;98.50
4635;DHT22;2330;48.158;11.816;2022-12-19T04:48:29;-5.20;98.50
4635;DHT22;2330;48.158;11.816;2022-12-19T04:50:56;-5.20;98.50
4635;DHT22;2330;48.158;11.816;2022-12-19T04:53:22;-5.20;98.50
4635;DHT22;2330;48.158;11.816;2022-12-19T04:55:49;-5.20;98.50
4635;DHT22;2330;48.158;11.816;2022-12-19T04:58:16;-5.20;98.50
4635;DHT22;2330;48.158;11.816;2022-12-19T05:00:47;-5.20;98.50
4635;DHT22;2330;48.158;11.816;2022-12-19T05:03:14;-5.20;98.50
4635;DHT22;2330;48.158;11.816;2022-12-19T05:05:41;-5.20;98.50
4635;DHT22;2330;48.158;11.816;2022-12-19T05:08:09;-5.10;98.50
4635;DHT22;2330;48.158;11.816;2022-12-19T05:10:36;-5.20;98.50
4635;DHT22;2330;48.158;11.816;2022-12-19T05:13:02;-5.20;98.50
4635;DHT22;2330;48.158;11.816;2022-12-19T05:15:30;-5.20;98.50
4635;DHT22;2330;48.158;11.816;2022-12-19T05:17:57;-5.20;98.50
4635;DHT22;2330;48.158;11.816;2022-12-19T05:20:23;-5.20;98.50
4635;DHT22;2330;48.158;11.816;2022-12-19T05:22:50;-5.20;98.50
4635;DHT22;2330;48.158;11.816;2022-12-19T05:25:17;-5.10;98.50
4635;DHT22;2330;48.158;11.816;2022-12-19T05:27:44;-5.10;98.50
4635;DHT22;2330;48.158;11.816;2022-12-19T05:30:11;-5.00;98.50
4635;DHT22;2330;48.158;11.816;2022-12-19T05:32:37;-5.00;98.50
4635;DHT22;2330;48.158;11.816;2022-12-19T05:35:05;-5.00;98.50
4635;DHT22;2330;48.158;11.816;2022-12-19T05:37:33;-5.00;98.50
4635;DHT22;2330;48.158;11.816;2022-12-19T05:40:00;-5.00;98.50
4635;DHT22;2330;48.158;11.816;2022-12-19T05:42:27;-5.00;98.50
4635;DHT22;2330;48.158;11.816;2022-12-19T05:44:54;-4.90;98.50
4635;DHT22;2330;48.158;11.816;2022-12-19T05:47:21;-4.90;98.50
4635;DHT22;2330;48.158;11.816;2022-12-19T05:49:48;-4.80;98.50
4635;DHT22;2330;48.158;11.816;2022-12-19T05:52:14;-4.80;98.50
4635;DHT22;2330;48.158;11.816;2022-12-19T05:54:41;-4.80;98.50
4635;DHT22;2330;48.158;11.816;2022-12-19T05:57:08;-4.80;98.50
4635;DHT22;2330;48.158;11.816;2022-12-19T05:59:35;-4.80;98.50
4635;DHT22;2330;48.158;11.816;2022-12-19T06:02:02;-4.80;98.50
4635;DHT22;2330;48.158;11.816;2022-12-19T06:04:29;-4.70;98.50
4635;DHT22;2330;48.158;11.816;2022-12-19T06:06:56;-4.70;98.50
4635;DHT22;2330;48.158;11.816;2022-12-19T06:09:22;-4.70;98.50
4635;DHT22;2330;48.158;11.816;2022-12-19T06:11:50;-4.70;98.50
4635;DHT22;2330;48.158;11.816;2022-12-19T06:14:16;-4.70;98.50
4635;DHT22;2330;48.158;11.816;2022-12-19T06:16:44;-4.60;98.50
4635;DHT22;2330;48.158;11.816;2022-12-19T06:19:11;-4.60;98.50
4635;DHT22;2330;48.158;11.816;2022-12-19T06:21:38;-4.60;98.50
4635;DHT22;2330;48.158;11.816;2022-12-19T06:24:19;-4.60;98.50
4635;DHT22;2330;48.158;11.816;2022-12-19T06:26:47;-4.60;98.50
4635;DHT22;2330;48.158;11.816;2022-12-19T06:29:13;-4.60;98.50
4635;DHT22;2330;48.158;11.816;2022-12-19T06:31:41;-4.60;98.50
4635;DHT22;2330;48.158;11.816;2022-12-19T06:34:11;-4.60;98.50
4635;DHT22;2330;48.158;11.816;2022-12-19T06:37:07;-4.50;98.50
4635;DHT22;2330;48.158;11.816;2022-12-19T06:39:37;-4.50;98.50
4635;DHT22;2330;48.158;11.816;2022-12-19T06:42:04;-4.50;98.50
4635;DHT22;2330;48.158;11.816;2022-12-19T06:44:54;-4.50;98.50
4635;DHT22;2330;48.158;11.816;2022-12-19T06:47:25;-4.50;98.50
4635;DHT22;2330;48.158;11.816;2022-12-19T06:50:01;-4.50;98.50
4635;DHT22;2330;48.158;11.816;2022-12-19T06:52:31;-4.50;98.50
4635;DHT22;2330;48.158;11.816;2022-12-19T06:55:01;-4.40;98.50
4635;DHT22;2330;48.158;11.816;2022-12-19T06:57:31;-4.40;98.50
4635;DHT22;2330;48.158;11.816;2022-12-19T06:59:58;-4.40;98.50
4635;DHT22;2330;48.158;11.816;2022-12-19T07:02:28;-4.40;98.50
4635;DHT22;2330;48.158;11.816;2022-12-19T07:05:01;-4.40;98.50
4635;DHT22;2330;48.158;11.816;2022-12-19T07:07:28;-4.40;98.50
4635;DHT22;2330;48.158;11.816;2022-12-19T07:09:56;-4.40;98.50
4635;DHT22;2330;48.158;11.816;2022-12-19T07:12:22;-4.40;98.50
4635;DHT22;2330;48.158;11.816;2022-12-19T07:14:49;-4.30;98.50
4635;DHT22;2330;48.158;11.816;2022-12-19T07:17:20;-4.30;98.50
4635;DHT22;2330;48.158;11.816;2022-12-19T07:19:49;-4.30;98.50
4635;DHT22;2330;48.158;11.816;2022-12-19T07:22:16;-4.30;98.50
4635;DHT22;2330;48.158;11.816;2022-12-19T07:24:43;-4.30;98.50
4635;DHT22;2330;48.158;11.816;2022-12-19T07:27:13;-4.20;98.50
4635;DHT22;2330;48.158;11.816;2022-12-19T07:29:40;-4.20;98.50
4635;DHT22;2330;48.158;11.816;2022-12-19T07:32:07;-4.30;98.50
4635;DHT22;2330;48.158;11.816;2022-12-19T07:34:34;-4.20;98.50
4635;DHT22;2330;48.158;11.816;2022-12-19T07:37:00;-4.10;98.50
4635;DHT22;2330;48.158;11.816;2022-12-19T07:39:27;-4.10;98.50
4635;DHT22;2330;48.158;11.816;2022-12-19T07:41:54;-4.10;98.50
4635;DHT22;2330;48.158;11.816;2022-12-19T07:44:21;-4.00;98.50
4635;DHT22;2330;48.158;11.816;2022-12-19T07:46:48;-4.00;98.50
4635;DHT22;2330;48.158;11.816;2022-12-19T07:49:15;-3.90;98.50
4635;DHT22;2330;48.158;11.816;2022-12-19T07:51:48;-3.80;98.50
4635;DHT22;2330;48.158;11.816;2022-12-19T07:54:15;-3.80;98.50
4635;DHT22;2330;48.158;11.816;2022-12-19T07:56:41;-3.70;98.50
4635;DHT22;2330;48.158;11.816;2022-12-19T07:59:09;-3.70;98.50
4635;DHT22;2330;48.158;11.816;2022-12-19T08:01:35;-3.60;98.50
4635;DHT22;2330;48.158;11.816;2022-12-19T08:04:02;-3.50;98.50
4635;DHT22;2330;48.158;11.816;2022-12-19T08:06:29;-3.40;98.50
4635;DHT22;2330;48.158;11.816;2022-12-19T08:08:56;-3.30;98.50
4635;DHT22;2330;48.158;11.816;2022-12-19T08:11:23;-3.30;98.50
4635;DHT22;2330;48.158;11.816;2022-12-19T08:13:53;-3.20;98.50
4635;DHT22;2330;48.158;11.816;2022-12-19T08:16:21;-3.10;98.50
4635;DHT22;2330;48.158;11.816;2022-12-19T08:18:48;-3.00;98.50
4635;DHT22;2330;48.158;11.816;2022-12-19T08:21:15;-2.90;98.50
4635;DHT22;2330;48.158;11.816;2022-12-19T08:23:42;-2.80;98.50
4635;DHT22;2330;48.158;11.816;2022-12-19T08:26:15;-2.90;98.50
4635;DHT22;2330;48.158;11.816;2022-12-19T08:28:42;-2.80;98.50
4635;DHT22;2330;48.158;11.816;2022-12-19T08:31:14;-2.80;98.50
4635;DHT22;2330;48.158;11.816;2022-12-19T08:33:42;-2.80;98.50
4635;DHT22;2330;48.158;11.816;2022-12-19T08:36:11;-2.70;98.50
4635;DHT22;2330;48.158;11.816;2022-12-19T08:38:39;-2.60;98.50
4635;DHT22;2330;48.158;11.816;2022-12-19T08:41:07;-2.60;98.50
4635;DHT22;2330;48.158;11.816;2022-12-19T08:43:35;-2.50;98.50
4635;DHT22;2330;48.158;11.816;2022-12-19T08:46:02;-2.40;98.50
4635;DHT22;2330;48.158;11.816;2022-12-19T08:48:31;-2.40;98.50
4635;DHT22;2330;48.158;11.816;2022-12-19T08:51:06;-2.30;98.50
4635;DHT22;2330;48.158;11.816;2022-12-19T08:53:35;-2.30;98.50
4635;DHT22;2330;48.158;11.816;2022-12-19T08:56:05;-2.10;98.50
4635;DHT22;2330;48.158;11.816;2022-12-19T08:58:35;-2.00;98.50
4635;DHT22;2330;48.158;11.816;2022-12-19T09:01:05;-2.00;98.50
4635;DHT22;2330;48.158;11.816;2022-12-19T09:03:35;-1.80;98.50
4635;DHT22;2330;48.158;11.816;2022-12-19T09:06:22;-1.70;98.50
4635;DHT22;2330;48.158;11.816;2022-12-19T09:08:49;-1.50;98.50
4635;DHT22;2330;48.158;11.816;2022-12-19T09:11:17;-1.40;98.50
4635;DHT22;2330;48.158;11.816;2022-12-19T09:13:46;-1.20;98.50
4635;DHT22;2330;48.158;11.816;2022-12-19T09:16:17;-1.20;98.50
4635;DHT22;2330;48.158;11.816;2022-12-19T09:18:47;-1.10;98.50
4635;DHT22;2330;48.158;11.816;2022-12-19T09:21:15;-1.00;98.50
4635;DHT22;2330;48.158;11.816;2022-12-19T09:23:47;-0.80;98.50
4635;DHT22;2330;48.158;11.816;2022-12-19T09:26:15;-0.80;98.50
4635;DHT22;2330;48.158;11.816;2022-12-19T09:28:45;-0.70;98.50
4635;DHT22;2330;48.158;11.816;2022-12-19T09:31:15;-0.60;98.50
4635;DHT22;2330;48.158;11.816;2022-12-19T09:33:43;-0.60;98.50
4635;DHT22;2330;48.158;11.816;2022-12-19T09:36:14;-0.60;98.50
4635;DHT22;2330;48.158;11.816;2022-12-19T09:38:42;-0.50;98.50
4635;DHT22;2330;48.158;11.816;2022-12-19T09:46:56;-0.30;98.50
4635;DHT22;2330;48.158;11.816;2022-12-19T09:49:33;-0.20;98.50
4635;DHT22;2330;48.158;11.816;2022-12-19T09:52:21;-0.10;98.50
4635;DHT22;2330;48.158;11.816;2022-12-19T09:54:56;0.00;98.50
4635;DHT22;2330;48.158;11.816;2022-12-19T09:57:39;0.10;98.50
4635;DHT22;2330;48.158;11.816;2022-12-19T10:00:16;0.30;98.50
4635;DHT22;2330;48.158;11.816;2022-12-19T10:05:40;0.60;98.50
4635;DHT22;2330;48.158;11.816;2022-12-19T10:08:32;0.80;98.50
4635;DHT22;2330;48.158;11.816;2022-12-19T10:11:42;0.90;98.50
4635;DHT22;2330;48.158;11.816;2022-12-19T10:25:50;1.20;98.50
4635;DHT22;2330;48.158;11.816;2022-12-19T10:28:51;1.20;98.50
4635;DHT22;2330;48.158;11.816;2022-12-19T10:31:38;1.00;98.50
4635;DHT22;2330;48.158;11.816;2022-12-19T10:34:21;0.90;98.50
4635;DHT22;2330;48.158;11.816;2022-12-19T10:36:53;0.90;98.50
4635;DHT22;2330;48.158;11.816;2022-12-19T10:45:03;0.80;98.50
4635;DHT22;2330;48.158;11.816;2022-12-19T10:47:34;0.80;98.50
4635;DHT22;2330;48.158;11.816;2022-12-19T10:50:01;0.80;98.50
4635;DHT22;2330;48.158;11.816;2022-12-19T10:53:08;0.90;98.50
4635;DHT22;2330;48.158;11.816;2022-12-19T10:55:47;0.90;98.50
4635;DHT22;2330;48.158;11.816;2022-12-19T10:58:35;0.80;98.50
4635;DHT22;2330;48.158;11.816;2022-12-19T11:01:03;0.70;98.50
4635;DHT22;2330;48.158;11.816;2022-12-19T11:03:33;0.60;98.50
4635;DHT22;2330;48.158;11.816;2022-12-19T11:06:02;0.60;98.50
4635;DHT22;2330;48.158;11.816;2022-12-19T11:08:35;0.50;98.50
4635;DHT22;2330;48.158;11.816;2022-12-19T11:13:49;0.40;98.50
4635;DHT22;2330;48.158;11.816;2022-12-19T11:16:36;0.30;98.50
4635;DHT22;2330;48.158;11.816;2022-12-19T11:19:35;0.50;98.50
4635;DHT22;2330;48.158;11.816;2022-12-19T11:22:25;0.50;98.50
4635;DHT22;2330;48.158;11.816;2022-12-19T11:25:19;0.70;98.50
4635;DHT22;2330;48.158;11.816;2022-12-19T11:28:17;0.90;98.50
4635;DHT22;2330;48.158;11.816;2022-12-19T11:31:21;0.90;98.50
4635;DHT22;2330;48.158;11.816;2022-12-19T11:34:14;0.80;98.50
4635;DHT22;2330;48.158;11.816;2022-12-19T11:39:44;1.00;98.50
4635;DHT22;2330;48.158;11.816;2022-12-19T11:42:29;1.00;98.50
4635;DHT22;2330;48.158;11.816;2022-12-19T11:45:16;1.00;98.50
4635;DHT22;2330;48.158;11.816;2022-12-19T11:47:54;1.00;98.50
4635;DHT22;2330;48.158;11.816;2022-12-19T11:50:31;1.10;98.50
4635;DHT22;2330;48.158;11.816;2022-12-19T11:53:18;1.30;98.50
4635;DHT22;2330;48.158;11.816;2022-12-19T11:55:50;1.40;98.50
4635;DHT22;2330;48.158;11.816;2022-12-19T11:58:19;1.40;98.50
4635;DHT22;2330;48.158;11.816;2022-12-19T12:01:38;1.60;98.50
4635;DHT22;2330;48.158;11.816;2022-12-19T12:04:20;1.50;98.50
4635;DHT22;2330;48.158;11.816;2022-12-19T12:06:52;1.60;98.50
4635;DHT22;2330;48.158;11.816;2022-12-19T12:09:31;1.60;98.50
4635;DHT22;2330;48.158;11.816;2022-12-19T12:12:28;1.70;98.50
4635;DHT22;2330;48.158;11.816;2022-12-19T12:25:20;2.30;98.50
4635;DHT22;2330;48.158;11.816;2022-12-19T12:41:22;2.20;98.50
4635;DHT22;2330;48.158;11.816;2022-12-19T12:44:13;2.30;98.50
4635;DHT22;2330;48.158;11.816;2022-12-19T12:46:48;2.40;98.50
4635;DHT22;2330;48.158;11.816;2022-12-19T12:49:33;2.40;98.50
4635;DHT22;2330;48.158;11.816;2022-12-19T12:52:02;2.10;98.50
4635;DHT22;2330;48.158;11.816;2022-12-19T12:54:38;1.90;98.50
4635;DHT22;2330;48.158;11.816;2022-12-19T12:57:48;2.00;98.50
4635;DHT22;2330;48.158;11.816;2022-12-19T13:00:28;2.00;98.50
4635;DHT22;2330;48.158;11.816;2022-12-19T13:03:12;2.00;98.50
4635;DHT22;2330;48.158;11.816;2022-12-19T13:08:37;1.70;98.50
4635;DHT22;2330;48.158;11.816;2022-12-19T13:11:12;1.70;98.50
4635;DHT22;2330;48.158;11.816;2022-12-19T13:13:59;1.60;98.50
4635;DHT22;2330;48.158;11.816;2022-12-19T13:19:26;1.70;98.50
4635;DHT22;2330;48.158;11.816;2022-12-19T13:24:48;1.90;98.50
4635;DHT22;2330;48.158;11.816;2022-12-19T13:38:19;2.20;98.50
4635;DHT22;2330;48.158;11.816;2022-12-19T13:41:25;2.30;98.50
4635;DHT22;2330;48.158;11.816;2022-12-19T13:44:11;2.30;98.50
4635;DHT22;2330;48.158;11.816;2022-12-19T13:46:43;2.30;98.50
4635;DHT22;2330;48.158;11.816;2022-12-19T13:51:54;2.20;98.50
4635;DHT22;2330;48.158;11.816;2022-12-19T13:54:46;2.10;98.50
4635;DHT22;2330;48.158;11.816;2022-12-19T13:57:26;2.00;98.50
4635;DHT22;2330;48.158;11.816;2022-12-19T13:59:57;1.90;98.50
4635;DHT22;2330;48.158;11.816;2022-12-19T14:02:39;1.70;98.50
4635;DHT22;2330;48.158;11.816;2022-12-19T14:05:24;1.50;98.50
4635;DHT22;2330;48.158;11.816;2022-12-19T14:08:17;1.50;98.50
4635;DHT22;2330;48.158;11.816;2022-12-19T14:10:46;1.40;98.50
4635;DHT22;2330;48.158;11.816;2022-12-19T14:13:46;1.40;98.50
4635;DHT22;2330;48.158;11.816;2022-12-19T14:16:43;1.30;98.50
4635;DHT22;2330;48.158;11.816;2022-12-19T14:19:38;1.30;98.50
4635;DHT22;2330;48.158;11.816;2022-12-19T14:22:32;1.30;98.50
4635;DHT22;2330;48.158;11.816;2022-12-19T14:25:01;1.30;98.50
4635;DHT22;2330;48.158;11.816;2022-12-19T14:27:53;1.30;98.50
4635;DHT22;2330;48.158;11.816;2022-12-19T14:30:46;1.20;98.50
4635;DHT22;2330;48.158;11.816;2022-12-19T14:33:22;1.10;98.50
4635;DHT22;2330;48.158;11.816;2022-12-19T14:36:10;1.00;98.50
4635;DHT22;2330;48.158;11.816;2022-12-19T14:38:46;0.90;98.50
4635;DHT22;2330;48.158;11.816;2022-12-19T14:41:42;0.80;98.50
4635;DHT22;2330;48.158;11.816;2022-12-19T14:44:49;0.80;98.50
4635;DHT22;2330;48.158;11.816;2022-12-19T14:47:38;0.70;98.50
4635;DHT22;2330;48.158;11.816;2022-12-19T14:53:17;0.60;98.50
4635;DHT22;2330;48.158;11.816;2022-12-19T14:56:12;0.50;98.50
4635;DHT22;2330;48.158;11.816;2022-12-19T14:58:59;0.50;98.50
4635;DHT22;2330;48.158;11.816;2022-12-19T15:01:29;0.40;98.50
4635;DHT22;2330;48.158;11.816;2022-12-19T15:04:01;0.40;98.50
4635;DHT22;2330;48.158;11.816;2022-12-19T15:06:48;0.30;98.50
4635;DHT22;2330;48.158;11.816;2022-12-19T15:10:09;0.20;98.50
4635;DHT22;2330;48.158;11.816;2022-12-19T15:13:15;0.20;98.50
4635;DHT22;2330;48.158;11.816;2022-12-19T15:16:29;0.10;98.50
4635;DHT22;2330;48.158;11.816;2022-12-19T15:19:01;0.10;98.50
4635;DHT22;2330;48.158;11.816;2022-12-19T15:21:29;0.00;98.50
4635;DHT22;2330;48.158;11.816;2022-12-19T15:23:56;-0.10;98.50
4635;DHT22;2330;48.158;11.816;2022-12-19T15:26:34;-0.10;98.50
4635;DHT22;2330;48.158;11.816;2022-12-19T15:29:05;-0.10;98.50
4635;DHT22;2330;48.158;11.816;2022-12-19T15:31:37;-0.20;98.50
4635;DHT22;2330;48.158;11.816;2022-12-19T15:34:30;-0.20;98.50
4635;DHT22;2330;48.158;11.816;2022-12-19T15:37:08;-0.30;98.50
4635;DHT22;2330;48.158;11.816;2022-12-19T15:39:35;-0.30;98.50
4635;DHT22;2330;48.158;11.816;2022-12-19T15:42:02;-0.40;98.50
4635;DHT22;2330;48.158;11.816;2022-12-19T15:44:34;-0.40;98.50
4635;DHT22;2330;48.158;11.816;2022-12-19T15:47:05;-0.50;98.50
4635;DHT22;2330;48.158;11.816;2022-12-19T15:49:32;-0.50;98.50
4635;DHT22;2330;48.158;11.816;2022-12-19T15:52:00;-0.40;98.50
4635;DHT22;2330;48.158;11.816;2022-12-19T15:54:28;-0.50;98.50
4635;DHT22;2330;48.158;11.816;2022-12-19T15:57:34;-0.50;98.50
4635;DHT22;2330;48.158;11.816;2022-12-19T16:00:05;-0.50;98.50
4635;DHT22;2330;48.158;11.816;2022-12-19T16:02:33;-0.60;98.50
4635;DHT22;2330;48.158;11.816;2022-12-19T16:05:22;-0.60;98.50
4635;DHT22;2330;48.158;11.816;2022-12-19T16:07:50;-0.60;98.50
4635;DHT22;2330;48.158;11.816;2022-12-19T16:10:17;-0.60;98.50
4635;DHT22;2330;48.158;11.816;2022-12-19T16:12:47;-0.70;98.50
4635;DHT22;2330;48.158;11.816;2022-12-19T16:15:25;-0.80;98.50
4635;DHT22;2330;48.158;11.816;2022-12-19T16:17:53;-0.80;98.50
4635;DHT22;2330;48.158;11.816;2022-12-19T16:20:24;-0.90;98.50
4635;DHT22;2330;48.158;11.816;2022-12-19T16:22:51;-0.90;98.50
4635;DHT22;2330;48.158;11.816;2022-12-19T16:25:18;-0.90;98.50
4635;DHT22;2330;48.158;11.816;2022-12-19T16:27:49;-1.00;98.50
4635;DHT22;2330;48.158;11.816;2022-12-19T16:30:22;-1.00;98.50
4635;DHT22;2330;48.158;11.816;2022-12-19T16:32:50;-1.00;98.50
4635;DHT22;2330;48.158;11.816;2022-12-19T16:35:18;-1.10;98.50
4635;DHT22;2330;48.158;11.816;2022-12-19T16:38:05;-1.20;98.50
4635;DHT22;2330;48.158;11.816;2022-12-19T16:40:32;-1.20;98.50
4635;DHT22;2330;48.158;11.816;2022-12-19T16:43:14;-1.20;98.50
4635;DHT22;2330;48.158;11.816;2022-12-19T16:45:43;-1.20;98.50
4635;DHT22;2330;48.158;11.816;2022-12-19T16:48:22;-1.30;98.50
4635;DHT22;2330;48.158;11.816;2022-12-19T16:50:49;-1.20;98.50
4635;DHT22;2330;48.158;11.816;2022-12-19T16:53:17;-1.30;98.50
4635;DHT22;2330;48.158;11.816;2022-12-19T16:55:45;-1.30;98.50
4635;DHT22;2330;48.158;11.816;2022-12-19T16:58:17;-1.40;98.50
4635;DHT22;2330;48.158;11.816;2022-12-19T17:00:45;-1.40;98.50
4635;DHT22;2330;48.158;11.816;2022-12-19T17:03:33;-1.40;98.50
4635;DHT22;2330;48.158;11.816;2022-12-19T17:06:03;-1.40;98.50
4635;DHT22;2330;48.158;11.816;2022-12-19T17:08:29;-1.40;98.50
4635;DHT22;2330;48.158;11.816;2022-12-19T17:10:58;-1.50;98.50
4635;DHT22;2330;48.158;11.816;2022-12-19T17:13:25;-1.50;98.50
4635;DHT22;2330;48.158;11.816;2022-12-19T17:15:52;-1.50;98.50
4635;DHT22;2330;48.158;11.816;2022-12-19T17:18:27;-1.50;98.50
4635;DHT22;2330;48.158;11.816;2022-12-19T17:20:54;-1.50;98.50
4635;DHT22;2330;48.158;11.816;2022-12-19T17:23:23;-1.50;98.50
4635;DHT22;2330;48.158;11.816;2022-12-19T17:25:50;-1.50;98.50
4635;DHT22;2330;48.158;11.816;2022-12-19T17:28:17;-1.50;98.50
4635;DHT22;2330;48.158;11.816;2022-12-19T17:30:49;-1.50;98.50
4635;DHT22;2330;48.158;11.816;2022-12-19T17:33:18;-1.50;98.50
4635;DHT22;2330;48.158;11.816;2022-12-19T17:35:49;-1.50;98.50
4635;DHT22;2330;48.158;11.816;2022-12-19T17:38:16;-1.50;98.50
4635;DHT22;2330;48.158;11.816;2022-12-19T17:40:43;-1.50;98.50
4635;DHT22;2330;48.158;11.816;2022-12-19T17:43:11;-1.50;98.50
4635;DHT22;2330;48.158;11.816;2022-12-19T17:45:39;-1.50;98.50
4635;DHT22;2330;48.158;11.816;2022-12-19T17:48:14;-1.50;98.50
4635;DHT22;2330;48.158;11.816;2022-12-19T17:50:45;-1.60;98.50
4635;DHT22;2330;48.158;11.816;2022-12-19T17:53:13;-1.60;98.50
4635;DHT22;2330;48.158;11.816;2022-12-19T17:55:40;-1.60;98.50
4635;DHT22;2330;48.158;11.816;2022-12-19T17:58:09;-1.50;98.50
4635;DHT22;2330;48.158;11.816;2022-12-19T18:00:36;-1.40;98.50
4635;DHT22;2330;48.158;11.816;2022-12-19T18:05:43;-1.40;98.50
4635;DHT22;2330;48.158;11.816;2022-12-19T18:08:28;-1.40;98.50
4635;DHT22;2330;48.158;11.816;2022-12-19T18:10:57;-1.40;98.50
4635;DHT22;2330;48.158;11.816;2022-12-19T18:13:26;-1.40;98.50
4635;DHT22;2330;48.158;11.816;2022-12-19T18:15:56;-1.40;98.50
4635;DHT22;2330;48.158;11.816;2022-12-19T18:18:29;-1.30;98.50